Time;durP1;ratioP1;P1;durP2;ratioP2;P2;SDS_P1;SDS_P2;PMS_P1;PMS_P2;Temp;Humidity;BMP_temperature;BMP_pressure;BME280_temperature;BME280_humidity;BME280_pressure;Samples;Min_cycle;Max_cycle;Signal;HPM_P1;HPM_P2
2023/10/13 00:06:42;;;;;;;16.48;4.85;;;;;;;19.10;100.00;101619.59;21010650;28;20070;-71
2023/10/13 00:17:08;;;;;;;14.13;4.50;;;;;;;19.02;100.00;101611.63;21036863;28;20195;-70
2023/10/13 00:27:35;;;;;;;12.02;5.00;;;;;;;19.08;100.00;101613.38;21021260;28;20045;-70
2023/10/13 00:38:03;;;;;;;13.00;4.07;;;;;;;19.18;100.00;101601.72;20953369;28;20050;-70
2023/10/13 00:48:33;;;;;;;9.03;4.37;;;;;;;19.17;100.00;101605.28;20958019;28;20045;-70
2023/10/13 00:58:57;;;;;;;12.00;5.13;;;;;;;19.15;100.00;101593.72;20952481;28;20036;-70
2023/10/13 01:09:24;;;;;;;18.77;5.30;;;;;;;19.08;100.00;101600.88;20946138;28;20048;-71
2023/10/13 01:19:48;;;;;;;9.65;4.60;;;;;;;19.19;100.00;101597.25;20947918;28;20060;-70
2023/10/13 01:30:22;;;;;;;12.30;4.47;;;;;;;19.23;100.00;101594.53;20961995;28;20059;-70
2023/10/13 01:40:51;;;;;;;14.57;4.03;;;;;;;19.23;100.00;101593.66;20949085;28;20098;-70
2023/10/13 01:51:16;;;;;;;13.55;4.72;;;;;;;19.32;100.00;101598.94;20963510;28;20144;-71
2023/10/13 02:01:39;;;;;;;14.48;4.78;;;;;;;19.31;100.00;101590.00;20951813;28;20864;-71
2023/10/13 02:12:04;;;;;;;11.98;4.20;;;;;;;19.32;100.00;101583.75;20945533;28;20239;-70
2023/10/13 02:22:28;;;;;;;14.38;3.90;;;;;;;19.30;100.00;101598.94;20948538;28;20625;-71
2023/10/13 02:32:53;;;;;;;15.20;5.82;;;;;;;19.27;100.00;101598.09;20926983;28;20053;-71
2023/10/13 02:43:15;;;;;;;11.95;6.15;;;;;;;19.07;100.00;101603.56;20917711;28;20044;-72
2023/10/13 02:53:41;;;;;;;13.18;5.80;;;;;;;18.90;100.00;101602.78;21049387;28;20446;-71
2023/10/13 03:04:08;;;;;;;14.40;5.85;;;;;;;18.91;100.00;101612.56;20955858;28;20508;-71
2023/10/13 03:14:32;;;;;;;14.45;5.75;;;;;;;19.05;100.00;101622.31;20944262;28;20519;-71
2023/10/13 03:24:59;;;;;;;12.02;5.07;;;;;;;19.08;100.00;101624.97;20969870;28;20131;-70
2023/10/13 03:35:24;;;;;;;11.82;5.55;;;;;;;18.99;100.00;101627.69;20979720;28;20041;-70
2023/10/13 03:45:48;;;;;;;11.57;5.28;;;;;;;18.91;100.00;101620.59;20970612;28;20048;-70
2023/10/13 03:56:15;;;;;;;9.32;4.55;;;;;;;18.88;100.00;101618.84;20972741;28;20051;-71
2023/10/13 04:07:12;;;;;;;11.82;5.05;;;;;;;18.94;100.00;101628.63;20972861;28;20048;-70
2023/10/13 04:17:45;;;;;;;10.77;5.25;;;;;;;18.98;100.00;101635.72;21002774;28;20044;-73
2023/10/13 04:28:34;;;;;;;9.52;4.95;;;;;;;19.06;100.00;101640.16;20999584;28;20057;-73
2023/10/13 04:39:09;;;;;;;9.23;4.68;;;;;;;19.09;100.00;101641.94;20969568;28;20052;-74
2023/10/13 04:49:39;;;;;;;8.82;4.47;;;;;;;19.16;100.00;101640.13;20991023;28;20056;-71
2023/10/13 06:36:22;;;;;;;10.98;3.08;;;;;;;20.82;100.00;101712.91;20968512;28;20056;-72
2023/10/13 06:46:49;;;;;;;8.02;2.22;;;;;;;22.91;100.00;101700.72;20909697;28;20579;-72
2023/10/13 06:57:14;;;;;;;;;;;;;;;22.55;100.00;101709.47;20972967;28;20131;-72
2023/10/13 07:07:40;;;;;;;10.45;2.63;;;;;;;22.87;100.00;101690.94;20985157;28;19920;-72
2023/10/13 07:18:05;;;;;;;7.03;2.28;;;;;;;23.45;100.00;101700.47;20969541;28;20052;-72
2023/10/13 07:28:31;;;;;;;7.68;2.00;;;;;;;24.56;100.00;101677.03;20968391;28;20036;-72
2023/10/13 07:39:09;;;;;;;6.20;2.72;;;;;;;24.13;100.00;101679.97;20966985;28;20052;-71
2023/10/13 07:49:37;;;;;;;10.52;2.55;;;;;;;23.45;100.00;101687.88;20954183;28;20133;-72
2023/10/13 08:00:10;;;;;;;11.35;2.40;;;;;;;24.36;100.00;101692.88;20984414;28;20052;-72
2023/10/13 08:10:38;;;;;;;8.15;2.28;;;;;;;24.33;100.00;101684.88;21043495;28;20049;-72
2023/10/13 08:21:03;;;;;;;;;;;;;;;23.86;100.00;101693.25;21053721;28;20055;-72
2023/10/13 08:31:29;;;;;;;6.72;2.10;;;;;;;25.22;100.00;101691.38;20991751;28;19924;-72
2023/10/13 08:42:11;;;;;;;9.95;2.50;;;;;;;25.25;100.00;101692.19;20983343;28;20045;-72
2023/10/13 08:52:46;;;;;;;9.95;2.20;;;;;;;25.05;100.00;101694.59;20953072;28;20048;-71
2023/10/13 09:13:47;;;;;;;7.70;2.27;;;;;;;26.20;100.00;101679.19;20944910;28;20062;-73
2023/10/13 09:24:27;;;;;;;6.53;2.40;;;;;;;26.04;100.00;101688.78;20902325;28;20052;-72
2023/10/13 09:34:53;;;;;;;10.50;2.60;;;;;;;25.27;100.00;101692.13;20918135;28;20048;-72
2023/10/13 09:45:17;;;;;;;8.93;3.00;;;;;;;25.40;100.00;101685.41;20913754;28;20056;-71
2023/10/13 09:55:45;;;;;;;10.00;2.30;;;;;;;25.31;100.00;101678.47;20941865;28;20067;-71
2023/10/13 10:06:14;;;;;;;7.13;2.28;;;;;;;25.81;100.00;101678.69;20941874;28;20048;-72
2023/10/13 10:17:04;;;;;;;6.28;2.10;;;;;;;25.63;100.00;101668.47;20923027;28;20098;-72
2023/10/13 10:27:29;;;;;;;6.55;1.90;;;;;;;26.15;100.00;101664.91;20906881;28;20053;-73
2023/10/13 10:38:11;;;;;;;6.30;2.00;;;;;;;25.61;100.00;101655.00;20930168;28;20518;-72
2023/10/13 10:48:38;;;;;;;8.43;2.40;;;;;;;26.02;100.00;101640.09;20986954;28;20052;-74
2023/10/13 10:59:04;;;;;;;10.07;2.43;;;;;;;25.81;100.00;101632.69;20962074;28;20072;-73
2023/10/13 11:09:36;;;;;;;8.65;2.50;;;;;;;26.05;100.00;101621.06;20911658;28;20300;-72
2023/10/13 11:20:15;;;;;;;9.90;2.28;;;;;;;26.11;100.00;101626.25;20914501;28;20130;-72
2023/10/13 11:30:45;;;;;;;9.48;2.30;;;;;;;26.41;98.93;101621.59;20961356;28;20052;-73
2023/10/13 11:41:14;;;;;;;7.85;2.10;;;;;;;26.48;96.17;101608.72;20951431;28;20097;-73
2023/10/13 11:51:38;;;;;;;8.25;2.15;;;;;;;25.88;94.68;101595.50;20967997;28;20051;-73
2023/10/13 12:12:43;;;;;;;8.50;1.88;;;;;;;25.47;97.03;101591.47;20911243;28;20052;-71
2023/10/13 12:33:47;;;;;;;7.70;2.10;;;;;;;25.37;99.98;101570.13;20968218;28;20068;-73
2023/10/13 12:54:58;;;;;;;6.25;2.15;;;;;;;25.23;100.00;101561.56;20947963;28;20064;-73
2023/10/13 13:05:28;;;;;;;5.32;1.80;;;;;;;25.10;100.00;101554.78;20956324;28;20492;-73
2023/10/13 13:15:50;;;;;;;6.88;1.73;;;;;;;24.84;100.00;101571.78;20899785;28;20140;-72
2023/10/13 13:26:17;;;;;;;9.85;2.53;;;;;;;24.82;100.00;101570.94;20940705;28;20052;-73
2023/10/13 13:36:44;;;;;;;6.15;2.00;;;;;;;24.92;100.00;101569.78;20913706;28;20080;-73
2023/10/13 13:47:12;;;;;;;8.93;2.20;;;;;;;24.90;100.00;101571.63;20956963;28;20052;-72
2023/10/13 13:57:35;;;;;;;7.47;2.08;;;;;;;24.81;100.00;101571.84;20947453;28;20044;-73
2023/10/13 14:07:59;;;;;;;8.35;2.13;;;;;;;24.59;100.00;101559.94;20950324;28;20056;-72
2023/10/13 14:18:27;;;;;;;8.10;1.90;;;;;;;24.32;100.00;101556.22;20930334;28;20045;-72
2023/10/13 14:29:01;;;;;;;14.85;2.50;;;;;;;24.21;100.00;101553.84;20940331;28;20060;-72
2023/10/13 14:39:29;;;;;;;7.47;2.00;;;;;;;23.97;100.00;101551.75;20937858;28;20133;-70
2023/10/13 14:49:55;;;;;;;6.18;1.73;;;;;;;23.62;100.00;101558.09;20929277;28;20054;-70
2023/10/13 15:00:24;;;;;;;5.75;1.65;;;;;;;23.41;100.00;101553.22;20960315;28;20052;-70
2023/10/13 15:10:48;;;;;;;6.40;1.67;;;;;;;23.23;100.00;101554.56;20916706;28;20057;-70
2023/10/13 15:21:12;;;;;;;6.07;2.20;;;;;;;23.12;100.00;101545.81;20940092;28;20040;-71
2023/10/13 15:31:41;;;;;;;8.85;2.17;;;;;;;23.15;100.00;101550.25;20949584;28;20053;-71
2023/10/13 15:42:03;;;;;;;9.13;1.95;;;;;;;23.19;100.00;101560.03;20937077;28;20388;-71
2023/10/13 15:52:27;;;;;;;7.18;1.95;;;;;;;23.18;100.00;101567.22;20942133;28;20052;-71
2023/10/13 16:02:54;;;;;;;10.10;2.45;;;;;;;23.18;100.00;101560.94;20952717;28;20076;-71
2023/10/13 16:13:19;;;;;;;11.65;2.42;;;;;;;23.06;100.00;101556.75;20959013;28;20056;-70
2023/10/13 16:23:45;;;;;;;6.63;2.50;;;;;;;22.91;100.00;101555.28;20923944;28;20139;-70
2023/10/13 16:34:10;;;;;;;8.63;2.65;;;;;;;22.75;100.00;101556.56;20945302;28;20121;-70
2023/10/13 16:44:32;;;;;;;8.00;2.92;;;;;;;22.56;100.00;101560.53;20935347;28;20057;-71
2023/10/13 16:54:56;;;;;;;8.30;2.97;;;;;;;22.35;100.00;101567.22;20931665;28;20056;-70
2023/10/13 17:05:19;;;;;;;8.00;2.83;;;;;;;22.21;100.00;101574.69;20937427;28;20048;-71
2023/10/13 17:15:43;;;;;;;6.57;2.67;;;;;;;22.03;100.00;101578.63;20929421;28;20048;-70
2023/10/13 17:26:07;;;;;;;6.10;2.15;;;;;;;21.87;100.00;101583.34;20957513;28;20060;-70
2023/10/13 17:36:31;;;;;;;6.40;2.72;;;;;;;21.75;100.00;101583.56;20953262;28;20044;-70
2023/10/13 17:46:53;;;;;;;7.15;2.38;;;;;;;21.78;100.00;101583.53;20930790;28;20092;-71
2023/10/13 17:57:17;;;;;;;6.88;2.20;;;;;;;21.85;100.00;101581.63;20931646;28;20118;-70
2023/10/13 18:07:40;;;;;;;6.65;2.50;;;;;;;21.81;100.00;101579.88;20933925;28;20439;-70
2023/10/13 18:18:08;;;;;;;6.25;2.45;;;;;;;21.70;100.00;101577.38;20941256;28;20131;-70
2023/10/13 18:28:35;;;;;;;7.07;2.70;;;;;;;21.59;100.00;101571.31;20952217;28;20534;-70
2023/10/13 18:39:00;;;;;;;8.30;2.65;;;;;;;21.46;100.00;101581.34;20969885;28;20048;-70
2023/10/13 18:49:24;;;;;;;8.88;2.90;;;;;;;21.31;100.00;101576.25;21004743;28;20412;-70
2023/10/13 18:59:49;;;;;;;11.45;4.53;;;;;;;21.11;100.00;101580.09;20931275;28;20473;-70
2023/10/13 19:10:15;;;;;;;8.88;3.63;;;;;;;20.93;100.00;101568.72;20964793;28;20048;-70
2023/10/13 19:20:42;;;;;;;9.38;3.67;;;;;;;20.74;100.00;101577.03;20968088;28;20054;-69
2023/10/13 19:31:07;;;;;;;7.45;3.20;;;;;;;20.46;100.00;101585.44;20956032;28;20517;-70
2023/10/13 19:41:33;;;;;;;8.98;4.30;;;;;;;20.30;100.00;101586.47;20937152;28;20052;-70
2023/10/13 19:51:57;;;;;;;5.38;3.10;;;;;;;20.05;100.00;101574.22;20990242;28;20052;-70
2023/10/13 20:02:22;;;;;;;8.00;3.60;;;;;;;19.96;100.00;101587.72;20980967;28;20040;-71
2023/10/13 20:12:44;;;;;;;7.68;2.75;;;;;;;19.83;100.00;101585.16;21011002;28;20063;-73
2023/10/13 20:23:12;;;;;;;7.20;3.10;;;;;;;19.76;100.00;101572.72;21007085;28;20047;-71
2023/10/13 20:33:35;;;;;;;10.97;3.40;;;;;;;19.65;100.00;101571.03;20996849;28;20500;-72
2023/10/13 20:44:00;;;;;;;8.88;2.78;;;;;;;19.50;100.00;101578.28;21015498;28;20714;-71
2023/10/13 20:54:23;;;;;;;6.68;2.75;;;;;;;19.25;100.00;101579.34;20959091;28;20055;-72
2023/10/13 21:04:47;;;;;;;7.07;3.10;;;;;;;19.29;100.00;101569.53;20965645;28;20064;-71
2023/10/13 21:15:15;;;;;;;7.20;3.15;;;;;;;19.26;100.00;101569.53;21014748;28;20113;-72
2023/10/13 21:25:41;;;;;;;8.52;3.28;;;;;;;19.14;100.00;101561.59;20967142;28;20054;-71
2023/10/13 21:36:13;;;;;;;8.05;3.30;;;;;;;19.10;100.00;101552.66;20948091;28;20093;-72
2023/10/13 21:46:37;;;;;;;7.07;3.55;;;;;;;18.95;100.00;101544.75;20968659;28;20502;-70
2023/10/13 21:57:01;;;;;;;7.68;3.40;;;;;;;18.90;100.00;101527.84;21003288;28;20064;-72
2023/10/13 22:07:25;;;;;;;7.13;2.75;;;;;;;18.76;100.00;101517.22;20951579;28;20071;-71
2023/10/13 22:17:49;;;;;;;7.93;3.20;;;;;;;18.68;100.00;101508.34;20959942;28;20128;-71
2023/10/13 22:28:15;;;;;;;7.80;3.30;;;;;;;18.67;100.00;101506.56;20960349;28;20047;-71
2023/10/13 22:38:37;;;;;;;8.18;3.50;;;;;;;18.61;100.00;101498.59;21030225;28;20051;-71
2023/10/13 22:49:02;;;;;;;9.20;3.97;;;;;;;18.46;100.00;101493.28;21050030;28;20139;-71
2023/10/13 22:59:27;;;;;;;7.45;3.50;;;;;;;18.22;100.00;101483.59;21038489;28;20053;-71
2023/10/13 23:09:51;;;;;;;8.43;3.42;;;;;;;18.13;100.00;101478.28;20995664;28;20093;-71
2023/10/13 23:20:17;;;;;;;7.93;3.58;;;;;;;18.03;100.00;101468.53;20964670;28;20044;-71
2023/10/13 23:30:45;;;;;;;9.15;3.45;;;;;;;18.02;100.00;101469.41;20974944;28;20400;-72
2023/10/13 23:41:12;;;;;;;10.20;3.90;;;;;;;18.00;100.00;101457.84;20964638;28;20045;-71
2023/10/13 23:51:37;;;;;;;8.23;3.40;;;;;;;17.91;100.00;101448.09;20917798;28;20060;-71
